Time;durP1;ratioP1;P1;durP2;ratioP2;P2;SDS_P1;SDS_P2;PMS_P1;PMS_P2;Temp;Humidity;BMP_temperature;BMP_pressure;BME280_temperature;BME280_humidity;BME280_pressure;Samples;Min_cycle;Max_cycle;Signal;HPM_P1;HPM_P2
2023/08/22 00:01:48;;;;;;;277.63;265.07;;;17.70;99.90;;;;;;5115085;28;20469;-65
2023/08/22 00:04:18;;;;;;;290.63;276.67;;;17.70;99.90;;;;;;5113811;28;20455;-64
2023/08/22 00:06:45;;;;;;;305.57;292.03;;;17.70;99.90;;;;;;5114204;28;20449;-65
2023/08/22 00:09:13;;;;;;;313.50;299.60;;;17.80;99.90;;;;;;5113846;28;20940;-66
2023/08/22 00:11:40;;;;;;;311.33;297.30;;;17.80;99.90;;;;;;5114729;28;20452;-65
2023/08/22 00:14:07;;;;;;;350.07;333.97;;;17.70;99.90;;;;;;5113802;28;20460;-66
2023/08/22 00:16:34;;;;;;;398.13;378.57;;;17.70;99.90;;;;;;5113878;28;20441;-65
2023/08/22 00:19:01;;;;;;;395.37;376.97;;;17.70;99.90;;;;;;5113780;28;20840;-65
2023/08/22 00:21:30;;;;;;;396.10;378.17;;;17.60;99.90;;;;;;5115164;28;20445;-65
2023/08/22 00:23:57;;;;;;;420.60;399.40;;;17.70;99.90;;;;;;5113692;28;20445;-65
2023/08/22 00:26:25;;;;;;;419.67;399.97;;;17.60;99.90;;;;;;5113801;28;20932;-65
2023/08/22 00:28:52;;;;;;;437.10;416.13;;;17.60;99.90;;;;;;5113566;28;21147;-65
2023/08/22 00:31:18;;;;;;;445.40;424.00;;;17.50;99.90;;;;;;5114919;28;20445;-65
2023/08/22 00:33:45;;;;;;;431.13;410.40;;;17.60;99.90;;;;;;5113522;28;20453;-65
2023/08/22 00:36:12;;;;;;;436.40;415.97;;;17.50;99.90;;;;;;5113722;28;20449;-65
2023/08/22 00:38:39;;;;;;;441.43;420.63;;;17.50;99.90;;;;;;5113529;28;20449;-65
2023/08/22 00:41:05;;;;;;;453.23;432.13;;;17.50;99.90;;;;;;5113762;28;20445;-65
2023/08/22 00:43:34;;;;;;;479.57;457.17;;;17.50;99.90;;;;;;5113241;28;20484;-65
2023/08/22 00:46:00;;;;;;;475.53;453.53;;;17.40;99.90;;;;;;5113447;28;20445;-65
2023/08/22 00:48:27;;;;;;;496.67;473.20;;;17.30;99.90;;;;;;5113245;28;20906;-65
2023/08/22 00:50:54;;;;;;;507.70;483.10;;;17.30;99.90;;;;;;5113987;28;20463;-65
2023/08/22 00:53:21;;;;;;;505.23;480.50;;;17.10;99.90;;;;;;5113324;28;20441;-65
2023/08/22 00:55:48;;;;;;;522.33;495.93;;;17.10;99.90;;;;;;5113112;28;20451;-65
2023/08/22 00:58:15;;;;;;;534.77;507.00;;;17.00;99.90;;;;;;5113347;28;20447;-65
2023/08/22 01:00:44;;;;;;;548.87;519.27;;;17.00;99.90;;;;;;5114157;28;20552;-64
2023/08/22 01:03:12;;;;;;;557.50;527.80;;;17.00;99.90;;;;;;5113295;28;20476;-65
2023/08/22 01:05:43;;;;;;;573.43;543.03;;;17.00;99.90;;;;;;5113396;28;20820;-65
2023/08/22 01:08:18;;;;;;;574.73;544.43;;;17.00;99.90;;;;;;5113425;28;20781;-65
2023/08/22 01:10:51;;;;;;;605.30;573.93;;;16.90;99.90;;;;;;5113565;28;20454;-65
2023/08/22 01:13:22;;;;;;;607.67;576.20;;;16.90;99.90;;;;;;5113392;28;20452;-65
2023/08/22 01:15:51;;;;;;;654.83;620.33;;;16.80;99.90;;;;;;5113204;28;20970;-65
2023/08/22 01:18:19;;;;;;;661.60;626.13;;;16.80;99.90;;;;;;5113077;28;20441;-65
2023/08/22 01:20:46;;;;;;;680.43;643.13;;;16.70;99.90;;;;;;5113645;28;20452;-65
2023/08/22 01:23:14;;;;;;;730.63;691.20;;;16.70;99.90;;;;;;5113360;28;20896;-65
2023/08/22 01:25:41;;;;;;;708.70;670.37;;;16.70;99.90;;;;;;5112848;28;20449;-65
2023/08/22 01:28:13;;;;;;;712.27;674.00;;;16.70;99.90;;;;;;5113142;28;20441;-65
2023/08/22 01:30:48;;;;;;;774.07;730.87;;;16.60;99.90;;;;;;5113298;28;20434;-65
2023/08/22 01:33:23;;;;;;;780.53;737.73;;;16.60;99.90;;;;;;5113080;28;20451;-66
2023/08/22 01:35:53;;;;;;;805.30;759.80;;;16.60;99.90;;;;;;5112434;28;20444;-65
2023/08/22 01:38:23;;;;;;;842.90;794.47;;;16.50;99.90;;;;;;5112785;28;20455;-65
2023/08/22 01:40:52;;;;;;;864.57;814.27;;;16.50;99.90;;;;;;5114234;28;20439;-65
2023/08/22 01:43:21;;;;;;;839.67;791.27;;;16.40;99.90;;;;;;5112912;28;20508;-65
2023/08/22 01:45:48;;;;;;;842.40;793.97;;;16.30;99.90;;;;;;5112965;28;20455;-65
2023/08/22 01:48:14;;;;;;;861.40;810.20;;;16.30;99.90;;;;;;5112836;28;20457;-65
2023/08/22 01:50:41;;;;;;;830.17;781.97;;;16.30;99.90;;;;;;5113268;28;20484;-65
2023/08/22 01:53:08;;;;;;;825.97;778.17;;;16.30;99.90;;;;;;5112690;28;20452;-65
2023/08/22 01:55:36;;;;;;;875.70;823.90;;;16.30;99.90;;;;;;5112739;28;20445;-65
2023/08/22 01:58:04;;;;;;;885.50;833.40;;;16.30;99.90;;;;;;5112831;28;20449;-65
2023/08/22 02:00:31;;;;;;;868.70;817.30;;;16.20;99.90;;;;;;5113123;28;20456;-65
2023/08/22 02:02:58;;;;;;;867.47;816.70;;;16.10;99.90;;;;;;5113005;28;20477;-64
2023/08/22 02:05:24;;;;;;;874.17;820.73;;;16.10;99.90;;;;;;5112600;28;20452;-65
2023/08/22 02:07:51;;;;;;;878.10;824.60;;;16.20;99.90;;;;;;5115810;28;20455;-65
2023/08/22 02:10:18;;;;;;;868.43;815.97;;;16.10;99.90;;;;;;5116709;28;20449;-65
2023/08/22 02:12:46;;;;;;;912.00;856.10;;;16.10;99.90;;;;;;5116850;28;20449;-65
2023/08/22 02:15:13;;;;;;;906.43;850.67;;;16.10;99.90;;;;;;5116012;28;20453;-65
2023/08/22 02:17:40;;;;;;;927.30;869.20;;;16.10;99.90;;;;;;5116024;28;20456;-65
2023/08/22 02:20:09;;;;;;;921.77;863.47;;;16.00;99.90;;;;;;5116559;28;20525;-65
2023/08/22 02:22:39;;;;;;;929.40;869.87;;;16.00;99.90;;;;;;5116481;28;20477;-65
2023/08/22 02:25:07;;;;;;;921.23;862.13;;;16.00;99.90;;;;;;5115955;28;20785;-65
2023/08/22 02:27:34;;;;;;;939.97;879.30;;;16.00;99.90;;;;;;5116074;28;20445;-65
2023/08/22 02:30:02;;;;;;;938.27;877.70;;;16.00;99.90;;;;;;5116083;28;20445;-65
2023/08/22 02:32:29;;;;;;;937.70;877.33;;;16.00;99.90;;;;;;5116479;28;20555;-65
2023/08/22 02:34:56;;;;;;;928.13;867.20;;;16.00;99.90;;;;;;5115907;28;20449;-65
2023/08/22 02:37:23;;;;;;;931.33;871.03;;;15.90;99.90;;;;;;5115611;28;20456;-66
2023/08/22 02:39:50;;;;;;;919.97;861.60;;;15.80;99.90;;;;;;5115841;28;20449;-65
2023/08/22 02:42:16;;;;;;;932.83;874.53;;;15.80;99.90;;;;;;5116328;28;20468;-65
2023/08/22 02:44:44;;;;;;;911.17;855.30;;;15.70;99.90;;;;;;5115495;28;20449;-65
2023/08/22 02:47:12;;;;;;;903.67;849.70;;;15.70;99.90;;;;;;5115659;28;20481;-65
2023/08/22 02:49:39;;;;;;;894.83;842.03;;;15.60;99.90;;;;;;5115692;28;20445;-65
2023/08/22 02:52:06;;;;;;;876.63;826.53;;;15.60;99.90;;;;;;5116029;28;20496;-65
2023/08/22 02:54:33;;;;;;;862.83;813.73;;;15.50;99.90;;;;;;5115307;28;20451;-66
2023/08/22 02:57:00;;;;;;;878.13;827.33;;;15.40;99.90;;;;;;5115320;28;20475;-66
2023/08/22 02:59:26;;;;;;;898.40;844.83;;;15.40;99.90;;;;;;5115502;28;20449;-65
2023/08/22 03:01:53;;;;;;;919.10;862.80;;;15.30;99.90;;;;;;5116130;28;20816;-65
2023/08/22 03:04:21;;;;;;;914.50;857.13;;;15.40;99.90;;;;;;5114975;28;20483;-66
2023/08/22 03:06:48;;;;;;;913.73;856.60;;;15.40;99.90;;;;;;5115068;28;20446;-65
2023/08/22 03:09:15;;;;;;;882.17;826.47;;;15.30;99.90;;;;;;5114760;28;20807;-65
2023/08/22 03:11:42;;;;;;;887.43;831.13;;;15.30;99.90;;;;;;5115461;28;20449;-65
2023/08/22 03:14:09;;;;;;;888.10;830.60;;;15.30;99.90;;;;;;5115061;28;20528;-65
2023/08/22 03:16:35;;;;;;;882.80;823.93;;;15.20;99.90;;;;;;5115247;28;20560;-65
2023/08/22 03:19:02;;;;;;;895.37;834.47;;;15.20;99.90;;;;;;5114826;28;20451;-65
2023/08/22 03:21:30;;;;;;;896.50;837.17;;;15.20;99.90;;;;;;5116181;28;20449;-65
2023/08/22 03:23:57;;;;;;;894.00;836.10;;;15.20;99.90;;;;;;5114799;28;20472;-65
2023/08/22 03:26:24;;;;;;;891.97;833.77;;;15.10;99.90;;;;;;5114694;28;20445;-65
2023/08/22 03:28:51;;;;;;;897.53;840.37;;;15.10;99.90;;;;;;5114908;28;20452;-65
2023/08/22 03:31:17;;;;;;;898.67;841.00;;;15.10;99.90;;;;;;5116190;28;20449;-65
2023/08/22 03:33:44;;;;;;;889.50;832.50;;;15.10;99.90;;;;;;5114708;28;20463;-65
2023/08/22 03:36:11;;;;;;;891.53;834.07;;;15.10;99.90;;;;;;5114624;28;20445;-65
2023/08/22 03:38:39;;;;;;;906.77;848.13;;;15.10;99.90;;;;;;5114568;28;20449;-65
2023/08/22 03:41:06;;;;;;;910.53;849.03;;;15.00;99.90;;;;;;5114930;28;20459;-65
2023/08/22 03:43:33;;;;;;;916.30;855.70;;;15.00;99.90;;;;;;5114475;28;20480;-65
2023/08/22 03:46:00;;;;;;;917.90;857.60;;;15.00;99.90;;;;;;5114531;28;20445;-65
2023/08/22 03:48:26;;;;;;;916.77;856.37;;;14.90;99.90;;;;;;5114562;28;20444;-65
2023/08/22 03:50:53;;;;;;;920.10;858.53;;;14.90;99.90;;;;;;5114736;28;20464;-65
2023/08/22 03:53:20;;;;;;;918.00;856.33;;;14.90;99.90;;;;;;5114576;28;20452;-65
2023/08/22 03:55:48;;;;;;;923.33;861.23;;;14.90;99.90;;;;;;5114455;28;20456;-65
2023/08/22 03:58:15;;;;;;;921.80;856.20;;;14.90;99.90;;;;;;5114403;28;20473;-65
2023/08/22 04:00:42;;;;;;;922.23;855.77;;;14.90;99.90;;;;;;5114617;28;20955;-65
2023/08/22 04:03:09;;;;;;;907.73;841.60;;;14.90;99.90;;;;;;5114223;28;20512;-65
2023/08/22 04:05:35;;;;;;;912.90;847.57;;;14.90;99.90;;;;;;5114106;28;20829;-65
2023/08/22 04:08:02;;;;;;;908.33;843.10;;;14.90;99.90;;;;;;5113906;28;20445;-65
2023/08/22 04:10:29;;;;;;;897.77;833.07;;;14.90;99.90;;;;;;5114569;28;20445;-65
2023/08/22 04:12:57;;;;;;;896.77;834.67;;;14.90;99.90;;;;;;5114291;28;20445;-65
2023/08/22 04:15:24;;;;;;;893.93;831.80;;;14.80;99.90;;;;;;5113763;28;20928;-65
2023/08/22 04:17:51;;;;;;;896.03;833.27;;;14.80;99.90;;;;;;5113959;28;20475;-65
2023/08/22 04:20:18;;;;;;;911.13;845.63;;;14.80;99.90;;;;;;5113323;28;20441;-65
2023/08/22 04:22:44;;;;;;;909.10;843.27;;;14.80;99.90;;;;;;5114103;28;20452;-65
2023/08/22 04:25:12;;;;;;;915.17;850.17;;;14.80;99.90;;;;;;5113679;28;20445;-65
2023/08/22 04:27:39;;;;;;;917.17;853.33;;;14.80;99.90;;;;;;5113893;28;20444;-65
2023/08/22 04:30:08;;;;;;;929.60;862.73;;;14.80;99.90;;;;;;5113367;28;20445;-65
2023/08/22 04:32:36;;;;;;;907.87;841.97;;;14.90;99.90;;;;;;5114217;28;20455;-65
2023/08/22 04:35:03;;;;;;;909.50;843.90;;;14.90;99.90;;;;;;5113315;28;20537;-65
2023/08/22 04:37:30;;;;;;;912.93;848.23;;;14.90;99.90;;;;;;5113753;28;20449;-65
2023/08/22 04:39:56;;;;;;;914.80;850.90;;;14.90;99.90;;;;;;5113682;28;20863;-65
2023/08/22 04:42:25;;;;;;;917.47;854.10;;;14.90;99.90;;;;;;5114154;28;20456;-63
2023/08/22 04:44:51;;;;;;;909.17;846.90;;;14.90;99.90;;;;;;5112865;28;20485;-63
2023/08/22 04:47:19;;;;;;;903.60;842.10;;;14.90;99.90;;;;;;5113265;28;20445;-63
2023/08/22 04:49:46;;;;;;;895.43;837.33;;;14.90;99.90;;;;;;5113184;28;20455;-64
2023/08/22 04:52:13;;;;;;;896.73;837.23;;;14.90;99.90;;;;;;5113582;28;20457;-64
2023/08/22 04:54:40;;;;;;;908.07;845.90;;;14.90;99.90;;;;;;5113030;28;20451;-64
2023/08/22 04:57:07;;;;;;;909.37;845.00;;;14.90;99.90;;;;;;5113420;28;20799;-64
2023/08/22 04:59:34;;;;;;;916.77;851.00;;;14.80;99.90;;;;;;5113161;28;20932;-64
2023/08/22 05:02:01;;;;;;;916.90;851.00;;;14.90;99.90;;;;;;5113852;28;20445;-64
2023/08/22 05:04:29;;;;;;;912.00;846.33;;;14.90;99.90;;;;;;5112726;28;21007;-64
2023/08/22 05:06:55;;;;;;;913.30;847.67;;;15.00;99.90;;;;;;5113226;28;20452;-64
2023/08/22 05:09:22;;;;;;;907.23;843.60;;;15.00;99.90;;;;;;5112754;28;20453;-64
2023/08/22 05:11:50;;;;;;;896.43;836.50;;;15.10;99.90;;;;;;5114184;28;20468;-64
2023/08/22 05:14:17;;;;;;;883.77;824.10;;;15.20;99.90;;;;;;5113039;28;20445;-64
2023/08/22 05:16:45;;;;;;;879.30;820.60;;;15.30;99.90;;;;;;5112829;28;20467;-64
2023/08/22 05:19:11;;;;;;;875.30;817.00;;;15.40;99.90;;;;;;5112738;28;20456;-64
2023/08/22 05:21:40;;;;;;;853.50;799.67;;;15.60;99.90;;;;;;5113614;28;20449;-64
2023/08/22 05:24:07;;;;;;;822.33;771.10;;;15.80;99.90;;;;;;5112938;28;20828;-64
2023/08/22 05:26:34;;;;;;;798.47;748.87;;;15.90;99.90;;;;;;5112889;28;20453;-64
2023/08/22 05:29:01;;;;;;;748.83;703.90;;;16.10;99.90;;;;;;5113106;28;20456;-64
2023/08/22 05:31:28;;;;;;;695.77;657.03;;;16.20;99.90;;;;;;5113360;28;20455;-64
2023/08/22 05:33:55;;;;;;;647.50;612.50;;;16.30;99.90;;;;;;5112699;28;20924;-64
2023/08/22 05:36:21;;;;;;;576.43;546.53;;;16.40;99.90;;;;;;5112783;28;20447;-64
2023/08/22 05:38:49;;;;;;;548.60;521.10;;;16.50;99.90;;;;;;5113015;28;20445;-64
2023/08/22 05:41:17;;;;;;;513.27;487.77;;;16.60;99.90;;;;;;5113967;28;20437;-64
2023/08/22 05:43:44;;;;;;;475.13;453.10;;;16.80;99.90;;;;;;5116499;28;20476;-64
2023/08/22 05:46:10;;;;;;;469.33;446.83;;;16.90;99.90;;;;;;5117015;28;20801;-64
2023/08/22 05:48:37;;;;;;;484.17;459.83;;;17.00;99.90;;;;;;5116714;28;20458;-64
2023/08/22 05:51:04;;;;;;;434.10;412.70;;;17.20;99.90;;;;;;5116851;28;20456;-64
2023/08/22 05:53:31;;;;;;;332.33;316.50;;;17.50;99.90;;;;;;5116565;28;20448;-64
2023/08/22 05:55:59;;;;;;;170.73;163.13;;;17.90;99.90;;;;;;5116768;28;20802;-64
2023/08/22 05:58:26;;;;;;;85.47;80.93;;;18.00;99.90;;;;;;5116348;28;20449;-64
2023/08/22 06:00:52;;;;;;;75.83;71.77;;;18.10;99.90;;;;;;5117313;28;20455;-64
2023/08/22 06:03:20;;;;;;;54.03;50.87;;;18.10;99.90;;;;;;5116245;28;20456;-64
2023/08/22 06:05:47;;;;;;;75.27;71.07;;;18.10;99.90;;;;;;5116514;28;20536;-64
2023/08/22 06:08:13;;;;;;;102.60;97.97;;;18.30;99.90;;;;;;5103185;28;20536;-64
2023/08/22 06:10:40;;;;;;;147.17;140.97;;;18.30;99.90;;;;;;5095685;28;20979;-64
2023/08/22 06:13:09;;;;;;;143.97;137.20;;;18.50;99.90;;;;;;5095643;28;20441;-64
2023/08/22 06:15:36;;;;;;;138.17;132.27;;;18.60;99.90;;;;;;5095378;28;20541;-63
2023/08/22 06:18:06;;;;;;;113.47;108.13;;;18.60;99.90;;;;;;5095288;28;20456;-63
2023/08/22 06:20:38;;;;;;;156.07;149.23;;;18.70;99.90;;;;;;5095975;28;20452;-64
2023/08/22 06:23:05;;;;;;;247.37;237.17;;;19.00;99.90;;;;;;5095949;28;20449;-63
2023/08/22 06:25:33;;;;;;;77.70;72.70;;;19.30;99.90;;;;;;5095183;28;20531;-64
2023/08/22 06:27:59;;;;;;;52.00;48.50;;;19.50;99.90;;;;;;5095503;28;20812;-64
2023/08/22 06:30:28;;;;;;;33.17;29.70;;;19.50;99.90;;;;;;5095882;28;20947;-63
2023/08/22 06:32:55;;;;;;;31.77;27.87;;;19.40;99.90;;;;;;5095671;28;20499;-64
2023/08/22 06:35:21;;;;;;;39.20;35.30;;;19.30;99.90;;;;;;5095146;28;20442;-64
2023/08/22 06:37:50;;;;;;;29.93;25.77;;;19.20;99.90;;;;;;5094952;28;20942;-63
2023/08/22 06:40:17;;;;;;;44.03;40.47;;;19.20;99.90;;;;;;5095356;28;20937;-63
2023/08/22 06:42:44;;;;;;;44.80;41.50;;;19.30;99.90;;;;;;5095728;28;20808;-63
2023/08/22 06:45:11;;;;;;;47.67;42.67;;;19.50;99.90;;;;;;5095031;28;20500;-64
2023/08/22 06:47:39;;;;;;;50.27;45.77;;;19.60;99.90;;;;;;5094879;28;20450;-64
2023/08/22 06:50:08;;;;;;;54.37;50.80;;;19.80;99.90;;;;;;5095116;28;20450;-63
2023/08/22 06:52:36;;;;;;;32.03;27.00;;;20.00;99.90;;;;;;5094817;28;20426;-63
2023/08/22 06:55:04;;;;;;;29.17;21.47;;;20.20;99.90;;;;;;5094573;28;20529;-64
2023/08/22 06:57:30;;;;;;;27.53;19.80;;;20.40;99.90;;;;;;5094797;28;20446;-63
2023/08/22 06:59:57;;;;;;;29.57;18.90;;;20.40;99.90;;;;;;5094642;28;20451;-64
2023/08/22 07:02:24;;;;;;;29.87;16.93;;;20.70;99.90;;;;;;5095504;28;20456;-63
2023/08/22 07:04:52;;;;;;;21.53;14.97;;;20.80;99.90;;;;;;5094299;28;20477;-63
2023/08/22 07:07:19;;;;;;;25.40;15.80;;;20.90;99.90;;;;;;5094377;28;20450;-63
2023/08/22 07:09:48;;;;;;;22.50;13.80;;;20.80;99.90;;;;;;5094915;28;20838;-64
2023/08/22 07:12:17;;;;;;;19.83;13.53;;;20.80;99.90;;;;;;5095430;28;20442;-64
2023/08/22 07:14:44;;;;;;;24.40;11.57;;;20.80;99.90;;;;;;5094330;28;20472;-64
2023/08/22 07:17:11;;;;;;;18.60;12.90;;;21.00;99.90;;;;;;5094325;28;20446;-64
2023/08/22 07:19:38;;;;;;;33.73;13.27;;;21.40;99.10;;;;;;5094321;28;20446;-64
2023/08/22 07:22:06;;;;;;;15.77;11.63;;;21.50;99.10;;;;;;5094877;28;20468;-64
2023/08/22 07:24:33;;;;;;;22.40;12.97;;;21.70;99.20;;;;;;5094193;28;20484;-64
2023/08/22 07:26:59;;;;;;;18.73;11.93;;;21.90;97.50;;;;;;5094081;28;20445;-64
2023/08/22 07:29:26;;;;;;;21.13;13.77;;;22.10;96.00;;;;;;5094129;28;20450;-64
2023/08/22 07:31:57;;;;;;;19.43;12.23;;;22.10;96.00;;;;;;5095412;28;20448;-64
2023/08/22 07:34:24;;;;;;;18.83;11.57;;;22.20;96.00;;;;;;5094017;28;20436;-64
2023/08/22 07:36:51;;;;;;;25.60;12.80;;;22.20;96.00;;;;;;5094184;28;20446;-64
2023/08/22 07:39:20;;;;;;;18.87;12.00;;;22.10;96.00;;;;;;5093961;28;20480;-64
2023/08/22 07:41:47;;;;;;;18.70;11.40;;;22.00;95.90;;;;;;5094640;28;20942;-64
2023/08/22 07:44:14;;;;;;;22.33;12.67;;;22.10;96.00;;;;;;5093647;28;20469;-64
2023/08/22 07:46:41;;;;;;;25.13;14.88;;;22.30;96.10;;;;;;5093129;28;20538;-64
2023/08/22 07:49:11;;;;;;;22.30;15.10;;;22.30;96.50;;;;;;5092737;28;20444;-64
2023/08/22 07:51:38;;;;;;;26.93;14.50;;;22.40;93.20;;;;;;5094513;28;20253;-64
2023/08/22 07:54:08;;;;;;;26.60;14.27;;;22.50;92.70;;;;;;5093843;28;20442;-64
2023/08/22 07:56:37;;;;;;;19.87;14.47;;;22.60;92.80;;;;;;5093660;28;20450;-64
2023/08/22 07:59:05;;;;;;;29.30;14.43;;;22.70;92.80;;;;;;5093315;28;20823;-64
2023/08/22 08:01:33;;;;;;;25.67;13.30;;;23.20;93.00;;;;;;5094735;28;20540;-64
2023/08/22 08:03:59;;;;;;;25.00;15.03;;;23.30;89.10;;;;;;5091971;28;20540;-64
2023/08/22 08:06:26;;;;;;;29.40;14.47;;;23.70;89.40;;;;;;5092985;28;20468;-64
2023/08/22 08:08:53;;;;;;;26.43;13.40;;;24.20;85.30;;;;;;5092914;28;20481;-64
2023/08/22 08:11:20;;;;;;;25.63;13.27;;;24.50;70.10;;;;;;5094060;28;20449;-64
2023/08/22 08:13:48;;;;;;;31.63;14.67;;;24.90;74.60;;;;;;5092520;28;20450;-64
2023/08/22 08:16:16;;;;;;;23.70;11.90;;;25.00;62.20;;;;;;5092837;28;20446;-64
2023/08/22 08:18:42;;;;;;;24.90;13.07;;;24.90;62.10;;;;;;5092788;28;20807;-64
2023/08/22 08:21:09;;;;;;;23.30;13.37;;;25.00;57.90;;;;;;5094005;28;20457;-64
2023/08/22 08:23:36;;;;;;;28.73;13.60;;;25.10;62.30;;;;;;5092663;28;20522;-64
2023/08/22 08:26:05;;;;;;;25.67;13.60;;;25.00;57.90;;;;;;5092836;28;20556;-64
2023/08/22 08:28:33;;;;;;;27.00;12.80;;;25.30;58.10;;;;;;5092296;28;20449;-64
2023/08/22 08:31:04;;;;;;;23.83;13.17;;;25.70;55.90;;;;;;5093498;28;20492;-64
2023/08/22 08:33:31;;;;;;;31.57;13.47;;;26.20;49.90;;;;;;5092768;28;20446;-64
2023/08/22 08:35:58;;;;;;;24.90;13.20;;;26.50;50.00;;;;;;5092682;28;20443;-64
2023/08/22 08:38:25;;;;;;;21.03;12.67;;;26.90;45.90;;;;;;5092432;28;20441;-64
2023/08/22 08:40:55;;;;;;;17.97;9.87;;;27.70;42.00;;;;;;5092967;28;20426;-64
2023/08/22 08:43:23;;;;;;;21.70;9.97;;;27.80;32.70;;;;;;5092585;28;20423;-64
2023/08/22 08:45:51;;;;;;;15.80;8.57;;;27.80;32.70;;;;;;5092141;28;20483;-64
2023/08/22 08:48:21;;;;;;;17.70;9.07;;;28.00;29.30;;;;;;5092178;28;20421;-64
2023/08/22 08:50:48;;;;;;;25.77;10.30;;;28.40;32.80;;;;;;5092701;28;20522;-64
2023/08/22 08:53:15;;;;;;;22.73;8.70;;;29.30;26.70;;;;;;5092530;28;20445;-64
2023/08/22 08:55:42;;;;;;;13.50;8.10;;;28.70;17.80;;;;;;5092503;28;20453;-64
2023/08/22 08:58:09;;;;;;;14.70;4.50;;;29.10;18.10;;;;;;5091843;28;20454;-64
2023/08/22 09:00:38;;;;;;;14.50;5.80;;;28.80;7.30;;;;;;5092376;28;20445;-64
2023/08/22 09:03:08;;;;;;;18.03;7.10;;;28.70;6.00;;;;;;5091861;28;20446;-64
2023/08/22 09:05:37;;;;;;;17.42;7.25;;;29.40;10.50;;;;;;5091742;28;20443;-66
2023/08/22 09:08:18;;;;;;;18.00;6.97;;;29.30;10.40;;;;;;5092146;28;20200;-65
2023/08/22 09:10:50;;;;;;;12.73;6.13;;;30.10;11.00;;;;;;5091934;28;20449;-65
2023/08/22 09:13:25;;;;;;;13.43;6.30;;;30.00;6.20;;;;;;5092213;28;20445;-65
2023/08/22 09:15:51;;;;;;;12.83;5.67;;;30.00;3.00;;;;;;5094074;28;20495;-66
2023/08/22 09:18:18;;;;;;;13.13;6.00;;;29.00;10.30;;;;;;5096348;28;20446;-66
2023/08/22 09:20:46;;;;;;;12.93;5.13;;;28.50;10.00;;;;;;5096906;28;20449;-66
2023/08/22 09:23:21;;;;;;;11.33;5.17;;;28.70;10.10;;;;;;5096471;28;20445;-65
2023/08/22 09:25:48;;;;;;;19.90;5.47;;;28.60;10.10;;;;;;5096544;28;20452;-66
2023/08/22 09:28:16;;;;;;;12.13;5.47;;;28.10;10.60;;;;;;5096519;28;20449;-66
2023/08/22 09:30:48;;;;;;;14.33;5.10;;;28.30;9.90;;;;;;5096322;28;20461;-65
2023/08/22 09:33:15;;;;;;;11.03;4.93;;;28.80;10.20;;;;;;5096209;28;20460;-65
2023/08/22 09:35:42;;;;;;;16.50;5.87;;;28.60;7.80;;;;;;5096353;28;20442;-66
2023/08/22 09:38:11;;;;;;;13.33;4.50;;;28.80;6.00;;;;;;5096225;28;20454;-65
2023/08/22 09:40:50;;;;;;;12.33;4.90;;;29.80;2.90;;;;;;5096267;28;20461;-65
2023/08/22 09:43:17;;;;;;;9.47;4.00;;;30.10;3.00;;;;;;5096085;28;20832;-66
2023/08/22 09:45:45;;;;;;;13.63;5.87;;;30.10;3.00;;;;;;5096115;28;20451;-66
2023/08/22 09:48:19;;;;;;;18.93;7.20;;;30.10;1.00;;;;;;5096100;28;20826;-66
2023/08/22 09:50:50;;;;;;;14.30;5.13;;;29.80;3.60;;;;;;5096083;28;20453;-66
2023/08/22 09:53:21;;;;;;;15.03;5.00;;;30.00;2.70;;;;;;5095847;28;20453;-65
2023/08/22 09:55:48;;;;;;;10.77;4.43;;;30.00;1.00;;;;;;5095647;28;20442;-64
2023/08/22 09:58:16;;;;;;;11.53;3.63;;;29.40;2.70;;;;;;5095881;28;20536;-66
2023/08/22 10:00:45;;;;;;;16.10;4.47;;;29.50;2.70;;;;;;5095765;28;20438;-66
2023/08/22 10:03:13;;;;;;;10.23;4.30;;;30.20;3.10;;;;;;5095194;28;20192;-63
2023/08/22 10:05:42;;;;;;;8.83;4.43;;;30.90;1.00;;;;;;5107301;28;20475;-63
2023/08/22 10:08:09;;;;;;;10.23;5.37;;;30.30;1.00;;;;;;5115321;28;20451;-64
2023/08/22 10:10:38;;;;;;;10.17;6.30;;;30.30;1.00;;;;;;5115216;28;20451;-63
2023/08/22 10:13:06;;;;;;;14.03;5.73;;;30.80;1.00;;;;;;5115241;28;20426;-63
2023/08/22 10:15:35;;;;;;;14.00;7.00;;;30.80;1.00;;;;;;5115302;28;20441;-63
2023/08/22 10:18:03;;;;;;;16.60;4.77;;;30.90;1.00;;;;;;5115772;28;20475;-63
2023/08/22 10:20:33;;;;;;;12.87;5.73;;;30.80;1.00;;;;;;5115224;28;20453;-63
2023/08/22 10:23:00;;;;;;;12.30;4.53;;;31.10;1.00;;;;;;5114829;28;20453;-63
2023/08/22 10:25:50;;;;;;;10.13;5.87;;;31.50;1.00;;;;;;5115156;28;20487;-63
2023/08/22 10:28:17;;;;;;;11.87;6.00;;;30.80;1.00;;;;;;5114017;28;20924;-63
2023/08/22 10:31:04;;;;;;;14.17;7.33;;;30.40;1.00;;;;;;5115053;28;20420;-63
2023/08/22 10:33:31;;;;;;;16.40;6.10;;;30.10;1.00;;;;;;5114736;28;20445;-63
2023/08/22 10:36:06;;;;;;;15.10;6.90;;;29.70;1.00;;;;;;5115126;28;20532;-63
2023/08/22 10:38:52;;;;;;;12.40;6.50;;;29.70;1.00;;;;;;5114908;28;20444;-63
2023/08/22 10:41:23;;;;;;;18.17;5.93;;;29.70;1.00;;;;;;5114780;28;20448;-63
2023/08/22 10:43:50;;;;;;;12.03;5.67;;;29.80;1.00;;;;;;5114482;28;20448;-63
2023/08/22 10:46:17;;;;;;;15.97;5.30;;;29.80;1.00;;;;;;5114851;28;20484;-63
2023/08/22 10:48:47;;;;;;;12.27;5.83;;;29.70;1.00;;;;;;5115161;28;20424;-63
2023/08/22 10:51:14;;;;;;;18.90;6.33;;;29.40;1.00;;;;;;5114964;28;20455;-63
2023/08/22 10:53:44;;;;;;;10.30;6.60;;;29.50;1.00;;;;;;5115036;28;20526;-63
2023/08/22 10:56:18;;;;;;;16.90;6.27;;;29.50;1.00;;;;;;5114771;28;20452;-64
2023/08/22 10:58:58;;;;;;;17.70;5.53;;;29.60;1.00;;;;;;5115048;28;20458;-63
2023/08/22 11:01:25;;;;;;;14.63;6.30;;;29.30;1.00;;;;;;5115038;28;20427;-63
2023/08/22 11:03:52;;;;;;;13.27;5.00;;;29.00;1.00;;;;;;5114820;28;20479;-62
2023/08/22 11:06:20;;;;;;;14.90;4.80;;;28.80;1.00;;;;;;5114660;28;20560;-63
2023/08/22 11:08:47;;;;;;;15.33;5.57;;;29.10;1.00;;;;;;5114501;28;20869;-63
2023/08/22 11:11:15;;;;;;;17.73;5.80;;;29.50;1.00;;;;;;5114743;28;20453;-63
2023/08/22 11:13:43;;;;;;;9.37;3.83;;;30.20;1.00;;;;;;5114568;28;20419;-63
2023/08/22 11:16:13;;;;;;;12.30;4.90;;;29.80;1.00;;;;;;5114393;28;20428;-64
2023/08/22 11:18:41;;;;;;;9.73;4.10;;;30.10;1.00;;;;;;5114480;28;20455;-62
2023/08/22 11:21:08;;;;;;;11.33;4.10;;;29.70;1.00;;;;;;5114825;28;20449;-65
2023/08/22 11:23:36;;;;;;;10.07;3.77;;;29.40;1.00;;;;;;5114792;28;20445;-65
2023/08/22 11:26:03;;;;;;;16.60;5.40;;;29.40;1.00;;;;;;5115017;28;20451;-63
2023/08/22 11:28:34;;;;;;;11.53;4.90;;;29.60;1.00;;;;;;5114958;28;20528;-62
2023/08/22 11:31:02;;;;;;;13.80;5.37;;;30.00;1.00;;;;;;5115211;28;20455;-62
2023/08/22 11:33:52;;;;;;;10.47;4.60;;;30.50;1.00;;;;;;5115084;28;20502;-62
2023/08/22 11:36:20;;;;;;;10.13;4.77;;;30.80;1.00;;;;;;5108558;28;20444;-62
2023/08/22 11:38:49;;;;;;;9.77;4.70;;;30.90;1.00;;;;;;5114607;28;20813;-62
2023/08/22 11:41:16;;;;;;;12.70;4.77;;;30.70;1.00;;;;;;5115025;28;20449;-62
2023/08/22 11:43:47;;;;;;;9.63;4.77;;;30.80;1.00;;;;;;5114428;28;20440;-62
2023/08/22 11:46:13;;;;;;;11.60;4.27;;;30.80;1.00;;;;;;5114455;28;20522;-62
2023/08/22 11:48:43;;;;;;;10.10;3.87;;;30.70;1.00;;;;;;5114707;28;20449;-62
2023/08/22 11:51:18;;;;;;;11.70;6.20;;;30.20;1.00;;;;;;5115041;28;20463;-62
2023/08/22 11:53:46;;;;;;;7.93;3.77;;;30.00;1.00;;;;;;5114121;28;20429;-62
2023/08/22 11:56:13;;;;;;;17.37;6.40;;;30.10;1.00;;;;;;5113853;28;20431;-62
2023/08/22 11:58:44;;;;;;;12.00;5.03;;;30.40;1.00;;;;;;5113380;28;20420;-62
2023/08/22 12:01:12;;;;;;;10.30;4.13;;;30.20;1.00;;;;;;5114768;28;20434;-62
2023/08/22 12:03:43;;;;;;;12.60;5.17;;;30.50;1.00;;;;;;5114387;28;20445;-62
2023/08/22 12:06:15;;;;;;;10.43;6.10;;;30.60;1.00;;;;;;5114117;28;20447;-62
2023/08/22 12:08:43;;;;;;;21.47;6.10;;;30.60;1.00;;;;;;5114273;28;20502;-62
2023/08/22 12:11:24;;;;;;;17.40;5.10;;;30.70;1.00;;;;;;5114556;28;20863;-62
2023/08/22 12:13:51;;;;;;;15.20;5.63;;;31.30;1.00;;;;;;5114174;28;20472;-62
2023/08/22 12:16:18;;;;;;;13.40;4.60;;;31.40;1.00;;;;;;5114039;28;20441;-62
2023/08/22 12:18:44;;;;;;;10.63;4.60;;;31.30;1.00;;;;;;5113096;28;20462;-62
2023/08/22 12:21:13;;;;;;;11.53;5.03;;;31.10;1.00;;;;;;5114358;28;20430;-62
2023/08/22 12:23:42;;;;;;;16.80;7.07;;;30.70;1.00;;;;;;5113079;28;20422;-62
2023/08/22 12:26:09;;;;;;;9.47;4.70;;;30.00;1.00;;;;;;5113190;28;20481;-62
2023/08/22 12:28:36;;;;;;;14.50;5.30;;;30.60;1.00;;;;;;5113182;28;20449;-62